SWA5457 KTPA-KBHM
Flight info
| Callsign | SWA5457 |
|---|---|
| Flight time | 1h 17m |
| Altitude | 36000 |
| Route | ENDED2 LACEN PATOY Q116 DEEDA WANDS |
| Aircraft | B38M/M-SDE1FGHILORVWXY/HB1 |
Departure
| Time | 2026-04-22 01:40 |
|---|---|
| Airport | Tampa International Airport (KTPA) |
Arrival
| Time | 2026-04-22 02:57 |
|---|---|
| Airport | Birmingham-Shuttlesworth International Airport (KBHM) |
| Time | Latitude | Longitude | Altitude | Speed | Heading |
|---|---|---|---|---|---|
| 2026-04-22 01:04 | 27.98374 | -82.53297 | 37 ft | 0 kts | 101° |
| 2026-04-22 01:25 | 27.98375 | -82.53304 | 37 ft | 4 kts | 99° |
| 2026-04-22 01:25 | 27.98378 | -82.53334 | 38 ft | 4 kts | 88° |
| 2026-04-22 01:26 | 27.98373 | -82.53363 | 36 ft | 4 kts | 58° |
| 2026-04-22 01:26 | 27.98359 | -82.53377 | 34 ft | 1 kts | 2° |
| 2026-04-22 01:26 | 27.98358 | -82.53377 | 34 ft | 2 kts | 2° |
| 2026-04-22 01:30 | 27.98380 | -82.53377 | 36 ft | 7 kts | 0° |
| 2026-04-22 01:30 | 27.98447 | -82.53361 | 37 ft | 13 kts | 27° |
| 2026-04-22 01:31 | 27.98491 | -82.53258 | 34 ft | 18 kts | 89° |
| 2026-04-22 01:31 | 27.98445 | -82.53125 | 32 ft | 18 kts | 136° |
| 2026-04-22 01:31 | 27.98364 | -82.53039 | 33 ft | 8 kts | 136° |
| 2026-04-22 01:31 | 27.98361 | -82.53036 | 32 ft | 0 kts | 138° |
| 2026-04-22 01:32 | 27.98353 | -82.53035 | 33 ft | 2 kts | 171° |
| 2026-04-22 01:32 | 27.98329 | -82.53037 | 34 ft | 6 kts | 184° |
| 2026-04-22 01:32 | 27.98271 | -82.53042 | 35 ft | 11 kts | 184° |
| 2026-04-22 01:32 | 27.98179 | -82.53045 | 37 ft | 15 kts | 182° |
| 2026-04-22 01:33 | 27.98057 | -82.53050 | 39 ft | 20 kts | 182° |
| 2026-04-22 01:33 | 27.97906 | -82.53053 | 41 ft | 24 kts | 181° |
| 2026-04-22 01:33 | 27.97721 | -82.53061 | 42 ft | 28 kts | 183° |
| 2026-04-22 01:33 | 27.97531 | -82.53068 | 42 ft | 27 kts | 181° |
| 2026-04-22 01:34 | 27.97393 | -82.53051 | 40 ft | 13 kts | 137° |
| 2026-04-22 01:34 | 27.97342 | -82.52998 | 39 ft | 9 kts | 162° |
| 2026-04-22 01:34 | 27.97275 | -82.52993 | 40 ft | 12 kts | 179° |
| 2026-04-22 01:34 | 27.97176 | -82.52997 | 39 ft | 9 kts | 183° |
| 2026-04-22 01:35 | 27.97164 | -82.52998 | 39 ft | 0 kts | 182° |
| 2026-04-22 01:35 | 27.97162 | -82.52998 | 39 ft | 2 kts | 182° |
| 2026-04-22 01:35 | 27.97111 | -82.53000 | 38 ft | 13 kts | 181° |
| 2026-04-22 01:36 | 27.97010 | -82.53003 | 37 ft | 16 kts | 181° |
| 2026-04-22 01:36 | 27.96889 | -82.53007 | 38 ft | 18 kts | 181° |
| 2026-04-22 01:36 | 27.96756 | -82.53011 | 38 ft | 19 kts | 181° |
| 2026-04-22 01:36 | 27.96624 | -82.53016 | 41 ft | 19 kts | 181° |
| 2026-04-22 01:37 | 27.96503 | -82.53018 | 43 ft | 12 kts | 175° |
| 2026-04-22 01:37 | 27.96471 | -82.53007 | 44 ft | 0 kts | 151° |
| 2026-04-22 01:38 | 27.96470 | -82.53006 | 44 ft | 1 kts | 148° |
| 2026-04-22 01:38 | 27.96448 | -82.52968 | 45 ft | 11 kts | 103° |
| 2026-04-22 01:38 | 27.96511 | -82.52904 | 42 ft | 19 kts | 0° |
| 2026-04-22 01:39 | 27.96775 | -82.52895 | 42 ft | 68 kts | 2° |
| 2026-04-22 01:39 | 27.97479 | -82.52873 | 40 ft | 131 kts | 1° |
| 2026-04-22 01:39 | 27.98512 | -82.52826 | 211 ft | 159 kts | 4° |
| 2026-04-22 01:39 | 27.99675 | -82.52769 | 533 ft | 176 kts | 6° |
| 2026-04-22 01:40 | 28.00986 | -82.52770 | 749 ft | 197 kts | 3° |
| 2026-04-22 01:40 | 28.02411 | -82.52796 | 1014 ft | 211 kts | 5° |
| 2026-04-22 01:40 | 28.03922 | -82.52856 | 1294 ft | 224 kts | 3° |
| 2026-04-22 01:40 | 28.05510 | -82.52936 | 1564 ft | 232 kts | 3° |
| 2026-04-22 01:41 | 28.07143 | -82.53019 | 1838 ft | 237 kts | 3° |
| 2026-04-22 01:41 | 28.08797 | -82.53099 | 2102 ft | 243 kts | 3° |
| 2026-04-22 01:41 | 28.10466 | -82.53502 | 2547 ft | 245 kts | 343° |
| 2026-04-22 01:41 | 28.11934 | -82.54382 | 3257 ft | 233 kts | 330° |
| 2026-04-22 01:42 | 28.13135 | -82.55541 | 3969 ft | 221 kts | 316° |
| 2026-04-22 01:42 | 28.14037 | -82.56893 | 4687 ft | 208 kts | 306° |
| 2026-04-22 01:42 | 28.14812 | -82.58207 | 5391 ft | 193 kts | 311° |
| 2026-04-22 01:42 | 28.15654 | -82.59314 | 6102 ft | 177 kts | 316° |
| 2026-04-22 01:43 | 28.16451 | -82.60330 | 6585 ft | 177 kts | 316° |
| 2026-04-22 01:43 | 28.17297 | -82.61468 | 6584 ft | 200 kts | 310° |
| 2026-04-22 01:43 | 28.18204 | -82.62789 | 6599 ft | 227 kts | 316° |
| 2026-04-22 01:43 | 28.19467 | -82.64045 | 6717 ft | 255 kts | 329° |
| 2026-04-22 01:44 | 28.21045 | -82.65084 | 7187 ft | 267 kts | 335° |
| 2026-04-22 01:44 | 28.22708 | -82.66040 | 7818 ft | 275 kts | 335° |
| 2026-04-22 01:44 | 28.24390 | -82.67123 | 8519 ft | 281 kts | 330° |
| 2026-04-22 01:44 | 28.26066 | -82.68308 | 9248 ft | 286 kts | 328° |
| 2026-04-22 01:45 | 28.27778 | -82.69497 | 9976 ft | 291 kts | 329° |
| 2026-04-22 01:45 | 28.29539 | -82.70678 | 10622 ft | 297 kts | 329° |
| 2026-04-22 01:45 | 28.31348 | -82.71893 | 11101 ft | 309 kts | 329° |
| 2026-04-22 01:45 | 28.33234 | -82.73177 | 11513 ft | 323 kts | 329° |
| 2026-04-22 01:46 | 28.35188 | -82.74511 | 12067 ft | 331 kts | 329° |
| 2026-04-22 01:46 | 28.37185 | -82.75867 | 12699 ft | 337 kts | 329° |
| 2026-04-22 01:46 | 28.39206 | -82.77237 | 13367 ft | 341 kts | 329° |
| 2026-04-22 01:46 | 28.41288 | -82.78565 | 14033 ft | 345 kts | 334° |
| 2026-04-22 01:47 | 28.43535 | -82.79578 | 14618 ft | 350 kts | 342° |
| 2026-04-22 01:47 | 28.45915 | -82.80216 | 15226 ft | 354 kts | 350° |
| 2026-04-22 01:47 | 28.48378 | -82.80463 | 15854 ft | 357 kts | 357° |
| 2026-04-22 01:47 | 28.50879 | -82.80420 | 16470 ft | 360 kts | 359° |
| 2026-04-22 01:48 | 28.53359 | -82.80406 | 17070 ft | 362 kts | 356° |
| 2026-04-22 01:48 | 28.55877 | -82.80697 | 17663 ft | 364 kts | 348° |
| 2026-04-22 01:48 | 28.58373 | -82.81240 | 18272 ft | 366 kts | 346° |
| 2026-04-22 01:48 | 28.60883 | -82.81806 | 18799 ft | 369 kts | 347° |
| 2026-04-22 01:49 | 28.63437 | -82.82252 | 19314 ft | 372 kts | 350° |
| 2026-04-22 01:49 | 28.66006 | -82.82655 | 19801 ft | 375 kts | 348° |
| 2026-04-22 01:49 | 28.68603 | -82.83120 | 20307 ft | 377 kts | 348° |
| 2026-04-22 01:49 | 28.71172 | -82.83614 | 20790 ft | 380 kts | 347° |
| 2026-04-22 01:50 | 28.73797 | -82.84097 | 21278 ft | 384 kts | 347° |
| 2026-04-22 01:50 | 28.76447 | -82.84561 | 21752 ft | 387 kts | 348° |
| 2026-04-22 01:50 | 28.79119 | -82.85037 | 22242 ft | 390 kts | 347° |
| 2026-04-22 01:50 | 28.81809 | -82.85530 | 22720 ft | 393 kts | 347° |
| 2026-04-22 01:51 | 28.84522 | -82.86027 | 23203 ft | 396 kts | 347° |
| 2026-04-22 01:51 | 28.87258 | -82.86519 | 23672 ft | 399 kts | 347° |
| 2026-04-22 01:51 | 28.90008 | -82.87014 | 24096 ft | 402 kts | 347° |
| 2026-04-22 01:51 | 28.92781 | -82.87518 | 24486 ft | 404 kts | 347° |
| 2026-04-22 01:52 | 28.95570 | -82.88026 | 24878 ft | 407 kts | 347° |
| 2026-04-22 01:52 | 28.98370 | -82.88534 | 25271 ft | 409 kts | 347° |
| 2026-04-22 01:52 | 29.01191 | -82.89045 | 25669 ft | 411 kts | 347° |
| 2026-04-22 01:52 | 29.03983 | -82.89555 | 26053 ft | 412 kts | 346° |
| 2026-04-22 01:53 | 29.06775 | -82.90286 | 26458 ft | 411 kts | 339° |
| 2026-04-22 01:53 | 29.09447 | -82.91401 | 26861 ft | 408 kts | 332° |
| 2026-04-22 01:53 | 29.11973 | -82.92885 | 27254 ft | 407 kts | 326° |
| 2026-04-22 01:53 | 29.14310 | -82.94716 | 27643 ft | 406 kts | 319° |
| 2026-04-22 01:54 | 29.16426 | -82.96855 | 28021 ft | 405 kts | 313° |
| 2026-04-22 01:54 | 29.18416 | -82.99139 | 28400 ft | 407 kts | 313° |
| 2026-04-22 01:54 | 29.20448 | -83.01404 | 28767 ft | 409 kts | 315° |
| 2026-04-22 01:54 | 29.22647 | -83.03494 | 29135 ft | 412 kts | 321° |
| 2026-04-22 01:55 | 29.25028 | -83.05343 | 29493 ft | 415 kts | 324° |
| 2026-04-22 01:55 | 29.27475 | -83.07115 | 29846 ft | 417 kts | 324° |
| 2026-04-22 01:55 | 29.29861 | -83.09020 | 30187 ft | 417 kts | 321° |
| 2026-04-22 01:55 | 29.32175 | -83.11042 | 30504 ft | 419 kts | 320° |
| 2026-04-22 01:56 | 29.34496 | -83.12998 | 30783 ft | 421 kts | 322° |
| 2026-04-22 01:56 | 29.36944 | -83.14943 | 31078 ft | 423 kts | 322° |
| 2026-04-22 01:56 | 29.39329 | -83.16861 | 31326 ft | 425 kts | 321° |
| 2026-04-22 01:56 | 29.41728 | -83.18862 | 31593 ft | 427 kts | 321° |
| 2026-04-22 01:57 | 29.44136 | -83.20873 | 31852 ft | 429 kts | 321° |
| 2026-04-22 01:57 | 29.46567 | -83.22861 | 32119 ft | 431 kts | 322° |
| 2026-04-22 01:57 | 29.49015 | -83.24856 | 32353 ft | 432 kts | 321° |
| 2026-04-22 01:57 | 29.51462 | -83.26876 | 32624 ft | 434 kts | 321° |
| 2026-04-22 01:58 | 29.53910 | -83.28908 | 32886 ft | 436 kts | 321° |
| 2026-04-22 01:58 | 29.56382 | -83.30945 | 33237 ft | 435 kts | 321° |
| 2026-04-22 01:58 | 29.58837 | -83.32962 | 33613 ft | 434 kts | 321° |
| 2026-04-22 01:58 | 29.61287 | -83.34985 | 33982 ft | 433 kts | 321° |
| 2026-04-22 01:59 | 29.63728 | -83.37008 | 34334 ft | 432 kts | 321° |
| 2026-04-22 01:59 | 29.66158 | -83.39018 | 34643 ft | 431 kts | 321° |
| 2026-04-22 01:59 | 29.68590 | -83.41029 | 34970 ft | 430 kts | 321° |
| 2026-04-22 01:59 | 29.71016 | -83.43035 | 35254 ft | 429 kts | 321° |
| 2026-04-22 02:00 | 29.73435 | -83.45039 | 35549 ft | 429 kts | 321° |
| 2026-04-22 02:00 | 29.75856 | -83.47047 | 35838 ft | 428 kts | 321° |
| 2026-04-22 02:00 | 29.78272 | -83.49051 | 36091 ft | 428 kts | 321° |
| 2026-04-22 02:00 | 29.80698 | -83.51065 | 36276 ft | 428 kts | 320° |
| 2026-04-22 02:01 | 29.85504 | -83.55054 | 36268 ft | 423 kts | 320° |
| 2026-04-22 02:01 | 29.88657 | -83.57678 | 36279 ft | 423 kts | 320° |
| 2026-04-22 02:02 | 29.95016 | -83.62965 | 36286 ft | 423 kts | 320° |
| 2026-04-22 02:02 | 29.99814 | -83.66965 | 36299 ft | 427 kts | 320° |
| 2026-04-22 02:03 | 30.04619 | -83.70969 | 36294 ft | 425 kts | 320° |
| 2026-04-22 02:03 | 30.09408 | -83.74972 | 36288 ft | 425 kts | 320° |
| 2026-04-22 02:04 | 30.16584 | -83.80972 | 36280 ft | 424 kts | 320° |
| 2026-04-22 02:05 | 30.21364 | -83.84979 | 36272 ft | 424 kts | 320° |
| 2026-04-22 02:05 | 30.26118 | -83.88971 | 36274 ft | 425 kts | 320° |
| 2026-04-22 02:06 | 30.30931 | -83.93016 | 36268 ft | 427 kts | 320° |
| 2026-04-22 02:06 | 30.35729 | -83.97054 | 36269 ft | 426 kts | 320° |
| 2026-04-22 02:07 | 30.40517 | -84.01089 | 36268 ft | 426 kts | 320° |
| 2026-04-22 02:07 | 30.45309 | -84.05131 | 36270 ft | 425 kts | 320° |
| 2026-04-22 02:08 | 30.49285 | -84.08489 | 36272 ft | 426 kts | 320° |
| 2026-04-22 02:08 | 30.54078 | -84.12543 | 36274 ft | 426 kts | 320° |
| 2026-04-22 02:09 | 30.58868 | -84.16598 | 36274 ft | 426 kts | 320° |
| 2026-04-22 02:09 | 30.63668 | -84.20667 | 36274 ft | 426 kts | 320° |
| 2026-04-22 02:10 | 30.68457 | -84.24731 | 36268 ft | 426 kts | 320° |
| 2026-04-22 02:10 | 30.73246 | -84.28801 | 36263 ft | 426 kts | 320° |
| 2026-04-22 02:11 | 30.77992 | -84.32840 | 36260 ft | 425 kts | 320° |
| 2026-04-22 02:11 | 30.82758 | -84.36900 | 36259 ft | 424 kts | 320° |
| 2026-04-22 02:12 | 30.87533 | -84.40975 | 36261 ft | 425 kts | 320° |
| 2026-04-22 02:12 | 30.92301 | -84.45046 | 36261 ft | 425 kts | 320° |
| 2026-04-22 02:13 | 30.97074 | -84.49129 | 36294 ft | 425 kts | 320° |
| 2026-04-22 02:13 | 31.01804 | -84.53178 | 36297 ft | 425 kts | 320° |
| 2026-04-22 02:14 | 31.06566 | -84.57261 | 36300 ft | 425 kts | 320° |
| 2026-04-22 02:14 | 31.11325 | -84.61346 | 36293 ft | 424 kts | 320° |
| 2026-04-22 02:15 | 31.16087 | -84.65440 | 36280 ft | 425 kts | 320° |
| 2026-04-22 02:15 | 31.20848 | -84.69538 | 36279 ft | 424 kts | 320° |
| 2026-04-22 02:16 | 31.25606 | -84.73637 | 36294 ft | 425 kts | 320° |
| 2026-04-22 02:16 | 31.30371 | -84.77750 | 36303 ft | 426 kts | 320° |
| 2026-04-22 02:17 | 31.35137 | -84.81866 | 36315 ft | 426 kts | 320° |
| 2026-04-22 02:17 | 31.39898 | -84.85986 | 36309 ft | 426 kts | 320° |
| 2026-04-22 02:18 | 31.44665 | -84.90115 | 36313 ft | 427 kts | 320° |
| 2026-04-22 02:18 | 31.49413 | -84.94232 | 36310 ft | 427 kts | 320° |
| 2026-04-22 02:19 | 31.54186 | -84.98378 | 36304 ft | 426 kts | 320° |
| 2026-04-22 02:19 | 31.58963 | -85.02516 | 36299 ft | 426 kts | 320° |
| 2026-04-22 02:20 | 31.63804 | -85.06546 | 36289 ft | 426 kts | 320° |
| 2026-04-22 02:20 | 31.68569 | -85.10598 | 36288 ft | 425 kts | 320° |
| 2026-04-22 02:21 | 31.73388 | -85.14663 | 36297 ft | 428 kts | 320° |
| 2026-04-22 02:21 | 31.78216 | -85.18756 | 36302 ft | 428 kts | 320° |
| 2026-04-22 02:22 | 31.83043 | -85.22848 | 36305 ft | 427 kts | 320° |
| 2026-04-22 02:22 | 31.87860 | -85.26939 | 36305 ft | 427 kts | 320° |
| 2026-04-22 02:23 | 31.92673 | -85.31032 | 36301 ft | 426 kts | 320° |
| 2026-04-22 02:23 | 31.97482 | -85.35126 | 36279 ft | 426 kts | 320° |
| 2026-04-22 02:24 | 32.02296 | -85.39231 | 36276 ft | 427 kts | 320° |
| 2026-04-22 02:24 | 32.07068 | -85.43300 | 36019 ft | 410 kts | 320° |
| 2026-04-22 02:24 | 32.09355 | -85.45251 | 35518 ft | 406 kts | 319° |
| 2026-04-22 02:25 | 32.11614 | -85.47191 | 35009 ft | 405 kts | 319° |
| 2026-04-22 02:25 | 32.13896 | -85.49148 | 34494 ft | 406 kts | 320° |
| 2026-04-22 02:25 | 32.16182 | -85.51100 | 33942 ft | 406 kts | 320° |
| 2026-04-22 02:25 | 32.18462 | -85.53050 | 33429 ft | 404 kts | 320° |
| 2026-04-22 02:26 | 32.20738 | -85.55003 | 32903 ft | 403 kts | 320° |
| 2026-04-22 02:26 | 32.23002 | -85.56948 | 32379 ft | 402 kts | 320° |
| 2026-04-22 02:26 | 32.25264 | -85.58889 | 31878 ft | 401 kts | 320° |
| 2026-04-22 02:26 | 32.27522 | -85.60827 | 31368 ft | 400 kts | 320° |
| 2026-04-22 02:27 | 32.29767 | -85.62757 | 30845 ft | 399 kts | 320° |
| 2026-04-22 02:27 | 32.32015 | -85.64691 | 30321 ft | 399 kts | 320° |
| 2026-04-22 02:27 | 32.34252 | -85.66614 | 29785 ft | 397 kts | 320° |
| 2026-04-22 02:27 | 32.36479 | -85.68530 | 29268 ft | 394 kts | 320° |
| 2026-04-22 02:28 | 32.38691 | -85.70436 | 28777 ft | 392 kts | 320° |
| 2026-04-22 02:28 | 32.40888 | -85.72332 | 28277 ft | 389 kts | 320° |
| 2026-04-22 02:28 | 32.43071 | -85.74214 | 27775 ft | 387 kts | 320° |
| 2026-04-22 02:28 | 32.45244 | -85.76089 | 27278 ft | 386 kts | 320° |
| 2026-04-22 02:29 | 32.47384 | -85.77938 | 26795 ft | 384 kts | 320° |
| 2026-04-22 02:29 | 32.49539 | -85.79801 | 26313 ft | 382 kts | 320° |
| 2026-04-22 02:29 | 32.51681 | -85.81652 | 25789 ft | 381 kts | 320° |
| 2026-04-22 02:29 | 32.53846 | -85.83497 | 25190 ft | 384 kts | 321° |
| 2026-04-22 02:30 | 32.56029 | -85.85320 | 24703 ft | 383 kts | 321° |
| 2026-04-22 02:30 | 32.58200 | -85.87146 | 24216 ft | 382 kts | 321° |
| 2026-04-22 02:30 | 32.60357 | -85.88982 | 23702 ft | 381 kts | 320° |
| 2026-04-22 02:30 | 32.62508 | -85.90811 | 23201 ft | 378 kts | 321° |
| 2026-04-22 02:31 | 32.64635 | -85.92611 | 22727 ft | 375 kts | 321° |
| 2026-04-22 02:31 | 32.66756 | -85.94405 | 22255 ft | 372 kts | 321° |
| 2026-04-22 02:31 | 32.68859 | -85.96191 | 21793 ft | 370 kts | 321° |
| 2026-04-22 02:31 | 32.70946 | -85.97967 | 21329 ft | 368 kts | 322° |
| 2026-04-22 02:32 | 32.73017 | -85.99726 | 20862 ft | 366 kts | 322° |
| 2026-04-22 02:32 | 32.75085 | -86.01483 | 20414 ft | 364 kts | 322° |
| 2026-04-22 02:32 | 32.77118 | -86.03212 | 19918 ft | 363 kts | 322° |
| 2026-04-22 02:32 | 32.79198 | -86.04985 | 19213 ft | 371 kts | 323° |
| 2026-04-22 02:33 | 32.81296 | -86.06772 | 18734 ft | 370 kts | 323° |
| 2026-04-22 02:33 | 32.83386 | -86.08550 | 18239 ft | 369 kts | 323° |
| 2026-04-22 02:33 | 32.85460 | -86.10316 | 17772 ft | 366 kts | 323° |
| 2026-04-22 02:33 | 32.87524 | -86.12079 | 17313 ft | 363 kts | 322° |
| 2026-04-22 02:34 | 32.89567 | -86.13824 | 16854 ft | 360 kts | 322° |
| 2026-04-22 02:34 | 32.91596 | -86.15556 | 16403 ft | 358 kts | 322° |
| 2026-04-22 02:34 | 32.93613 | -86.17280 | 15954 ft | 355 kts | 322° |
| 2026-04-22 02:34 | 32.95614 | -86.18991 | 15510 ft | 354 kts | 322° |
| 2026-04-22 02:35 | 32.97613 | -86.20702 | 15061 ft | 352 kts | 322° |
| 2026-04-22 02:35 | 32.99600 | -86.22403 | 14625 ft | 350 kts | 322° |
| 2026-04-22 02:35 | 33.01576 | -86.24096 | 14187 ft | 349 kts | 321° |
| 2026-04-22 02:35 | 33.03538 | -86.25778 | 13709 ft | 347 kts | 321° |
| 2026-04-22 02:36 | 33.05490 | -86.27453 | 13316 ft | 344 kts | 322° |
| 2026-04-22 02:36 | 33.07422 | -86.29110 | 12901 ft | 341 kts | 322° |
| 2026-04-22 02:36 | 33.09308 | -86.30729 | 12481 ft | 338 kts | 322° |
| 2026-04-22 02:36 | 33.11210 | -86.32363 | 12142 ft | 333 kts | 322° |
| 2026-04-22 02:37 | 33.13113 | -86.34000 | 11416 ft | 341 kts | 322° |
| 2026-04-22 02:37 | 33.15058 | -86.35674 | 10701 ft | 347 kts | 323° |
| 2026-04-22 02:37 | 33.17073 | -86.37309 | 9987 ft | 352 kts | 328° |
| 2026-04-22 02:37 | 33.19272 | -86.38646 | 9225 ft | 356 kts | 335° |
| 2026-04-22 02:38 | 33.21571 | -86.39783 | 8478 ft | 359 kts | 338° |
| 2026-04-22 02:38 | 33.23883 | -86.40922 | 7751 ft | 360 kts | 335° |
| 2026-04-22 02:38 | 33.26132 | -86.42223 | 7027 ft | 356 kts | 332° |
| 2026-04-22 02:38 | 33.28245 | -86.43512 | 6308 ft | 325 kts | 333° |
| 2026-04-22 02:39 | 33.30188 | -86.44621 | 5992 ft | 293 kts | 334° |
| 2026-04-22 02:39 | 33.32006 | -86.45628 | 5984 ft | 289 kts | 334° |
| 2026-04-22 02:39 | 33.33780 | -86.46637 | 5977 ft | 275 kts | 333° |
| 2026-04-22 02:39 | 33.35468 | -86.47609 | 5978 ft | 266 kts | 333° |
| 2026-04-22 02:40 | 33.37149 | -86.48561 | 5972 ft | 267 kts | 334° |
| 2026-04-22 02:40 | 33.38828 | -86.49505 | 5975 ft | 266 kts | 334° |
| 2026-04-22 02:40 | 33.40506 | -86.50454 | 5973 ft | 267 kts | 334° |
| 2026-04-22 02:40 | 33.42181 | -86.51404 | 5979 ft | 266 kts | 334° |
| 2026-04-22 02:41 | 33.43856 | -86.52354 | 5983 ft | 267 kts | 334° |
| 2026-04-22 02:41 | 33.45535 | -86.53304 | 5983 ft | 267 kts | 334° |
| 2026-04-22 02:41 | 33.47214 | -86.54257 | 5984 ft | 267 kts | 334° |
| 2026-04-22 02:41 | 33.48895 | -86.55210 | 5993 ft | 267 kts | 334° |
| 2026-04-22 02:42 | 33.50574 | -86.56163 | 5994 ft | 267 kts | 334° |
| 2026-04-22 02:42 | 33.52233 | -86.57118 | 5995 ft | 272 kts | 331° |
| 2026-04-22 02:42 | 33.53813 | -86.58333 | 5999 ft | 268 kts | 320° |
| 2026-04-22 02:42 | 33.55169 | -86.59873 | 6005 ft | 268 kts | 309° |
| 2026-04-22 02:43 | 33.56254 | -86.61682 | 6009 ft | 267 kts | 298° |
| 2026-04-22 02:43 | 33.57033 | -86.63695 | 6013 ft | 266 kts | 287° |
| 2026-04-22 02:43 | 33.57478 | -86.65840 | 6013 ft | 265 kts | 276° |
| 2026-04-22 02:43 | 33.57573 | -86.68035 | 6012 ft | 263 kts | 265° |
| 2026-04-22 02:44 | 33.57318 | -86.70194 | 6015 ft | 261 kts | 254° |
| 2026-04-22 02:44 | 33.56724 | -86.72244 | 6018 ft | 260 kts | 243° |
| 2026-04-22 02:44 | 33.55825 | -86.74088 | 6005 ft | 250 kts | 232° |
| 2026-04-22 02:44 | 33.54678 | -86.75654 | 5645 ft | 252 kts | 221° |
| 2026-04-22 02:45 | 33.53280 | -86.76929 | 5285 ft | 254 kts | 210° |
| 2026-04-22 02:45 | 33.51682 | -86.77860 | 4922 ft | 256 kts | 200° |
| 2026-04-22 02:45 | 33.49990 | -86.78546 | 4555 ft | 258 kts | 197° |
| 2026-04-22 02:45 | 33.48263 | -86.79173 | 4194 ft | 260 kts | 196° |
| 2026-04-22 02:46 | 33.46550 | -86.79882 | 3835 ft | 262 kts | 204° |
| 2026-04-22 02:46 | 33.44974 | -86.80931 | 3478 ft | 263 kts | 214° |
| 2026-04-22 02:46 | 33.43575 | -86.82336 | 3121 ft | 263 kts | 225° |
| 2026-04-22 02:46 | 33.42435 | -86.84002 | 2992 ft | 254 kts | 234° |
| 2026-04-22 02:47 | 33.41489 | -86.85663 | 2998 ft | 222 kts | 236° |
| 2026-04-22 02:47 | 33.40641 | -86.87218 | 2999 ft | 220 kts | 236° |
| 2026-04-22 02:47 | 33.39882 | -86.88784 | 3001 ft | 219 kts | 245° |
| 2026-04-22 02:47 | 33.39423 | -86.90505 | 3008 ft | 219 kts | 258° |
| 2026-04-22 02:48 | 33.39301 | -86.92313 | 3007 ft | 219 kts | 271° |
| 2026-04-22 02:48 | 33.39527 | -86.94120 | 3000 ft | 221 kts | 284° |
| 2026-04-22 02:48 | 33.40093 | -86.95840 | 3005 ft | 224 kts | 297° |
| 2026-04-22 02:48 | 33.40970 | -86.97375 | 2999 ft | 224 kts | 310° |
| 2026-04-22 02:49 | 33.42100 | -86.98629 | 2998 ft | 225 kts | 323° |
| 2026-04-22 02:49 | 33.43465 | -86.99575 | 2992 ft | 226 kts | 336° |
| 2026-04-22 02:49 | 33.44961 | -87.00131 | 2988 ft | 226 kts | 349° |
| 2026-04-22 02:49 | 33.46526 | -87.00264 | 2982 ft | 226 kts | 7° |
| 2026-04-22 02:50 | 33.47968 | -86.99542 | 2983 ft | 227 kts | 33° |
| 2026-04-22 02:50 | 33.49271 | -86.98487 | 2984 ft | 226 kts | 36° |
| 2026-04-22 02:50 | 33.50272 | -86.97084 | 2988 ft | 224 kts | 72° |
| 2026-04-22 02:50 | 33.50806 | -86.95349 | 2990 ft | 226 kts | 53° |
| 2026-04-22 02:51 | 33.52110 | -86.94363 | 3010 ft | 227 kts | 10° |
| 2026-04-22 02:51 | 33.53617 | -86.94642 | 2999 ft | 226 kts | 328° |
| 2026-04-22 02:51 | 33.54598 | -86.96074 | 2996 ft | 223 kts | 285° |
| 2026-04-22 02:51 | 33.54529 | -86.97853 | 2999 ft | 218 kts | 247° |
| 2026-04-22 02:52 | 33.53813 | -86.99460 | 2987 ft | 218 kts | 237° |
| 2026-04-22 02:52 | 33.52698 | -87.00629 | 2983 ft | 217 kts | 198° |
| 2026-04-22 02:52 | 33.51221 | -87.00570 | 2986 ft | 217 kts | 158° |
| 2026-04-22 02:52 | 33.49905 | -86.99684 | 2978 ft | 218 kts | 147° |
| 2026-04-22 02:53 | 33.48642 | -86.98664 | 2986 ft | 217 kts | 146° |
| 2026-04-22 02:53 | 33.47418 | -86.97604 | 2976 ft | 218 kts | 135° |
| 2026-04-22 02:53 | 33.46819 | -86.95985 | 2989 ft | 222 kts | 92° |
| 2026-04-22 02:53 | 33.47025 | -86.94147 | 2999 ft | 224 kts | 78° |
| 2026-04-22 02:54 | 33.47418 | -86.92333 | 2996 ft | 225 kts | 73° |
| 2026-04-22 02:54 | 33.47970 | -86.90581 | 3003 ft | 225 kts | 67° |
| 2026-04-22 02:54 | 33.48648 | -86.88881 | 2903 ft | 226 kts | 63° |
| 2026-04-22 02:54 | 33.49184 | -86.87815 | 2797 ft | 226 kts | 58° |
| 2026-04-22 02:55 | 33.50036 | -86.86304 | 2559 ft | 207 kts | 54° |
| 2026-04-22 02:55 | 33.50895 | -86.84914 | 2325 ft | 206 kts | 53° |
| 2026-04-22 02:55 | 33.51746 | -86.83554 | 2021 ft | 206 kts | 53° |
| 2026-04-22 02:55 | 33.52570 | -86.82234 | 1571 ft | 184 kts | 53° |
| 2026-04-22 02:56 | 33.53261 | -86.81087 | 1187 ft | 160 kts | 56° |
| 2026-04-22 02:56 | 33.53875 | -86.79937 | 1012 ft | 161 kts | 56° |
| 2026-04-22 02:56 | 33.54495 | -86.78814 | 920 ft | 164 kts | 53° |
| 2026-04-22 02:56 | 33.55153 | -86.77722 | 731 ft | 164 kts | 52° |
| 2026-04-22 02:57 | 33.55761 | -86.76674 | 615 ft | 137 kts | 53° |
| 2026-04-22 02:57 | 33.56213 | -86.75898 | 633 ft | 86 kts | 54° |
| 2026-04-22 02:57 | 33.56468 | -86.75452 | 635 ft | 51 kts | 56° |
| 2026-04-22 02:57 | 33.56649 | -86.75126 | 639 ft | 41 kts | 60° |
| 2026-04-22 02:58 | 33.56632 | -86.74993 | 630 ft | 2 kts | 136° |
| 2026-04-22 02:58 | 33.56630 | -86.74990 | 630 ft | 0 kts | 137° |
| 2026-04-22 02:58 | 33.56625 | -86.74989 | 629 ft | 1 kts | 159° |
| 2026-04-22 02:58 | 33.56609 | -86.74993 | 634 ft | 2 kts | 210° |
| 2026-04-22 02:59 | 33.56591 | -86.75022 | 638 ft | 6 kts | 236° |
| 2026-04-22 02:59 | 33.56563 | -86.75074 | 634 ft | 9 kts | 237° |
| 2026-04-22 02:59 | 33.56524 | -86.75134 | 635 ft | 8 kts | 213° |
| 2026-04-22 02:59 | 33.56474 | -86.75130 | 637 ft | 10 kts | 163° |
| 2026-04-22 03:00 | 33.56404 | -86.75179 | 638 ft | 16 kts | 230° |
| 2026-04-22 03:00 | 33.56352 | -86.75274 | 629 ft | 6 kts | 239° |
| 2026-04-22 03:00 | 33.56338 | -86.75281 | 636 ft | 0 kts | 181° |
| 2026-04-22 03:00 | 33.56337 | -86.75281 | 636 ft | 1 kts | 176° |
| 2026-04-22 03:01 | 33.56323 | -86.75263 | 635 ft | 6 kts | 129° |
| 2026-04-22 03:01 | 33.56295 | -86.75232 | 631 ft | 3 kts | 144° |
| 2026-04-22 03:01 | 33.56287 | -86.75226 | 637 ft | 0 kts | 148° |
| 2026-04-22 03:01 | 33.56286 | -86.75226 | 637 ft | 1 kts | 148° |
| 2026-04-22 03:02 | 33.56282 | -86.75223 | 636 ft | 0 kts | 148° |
| 2026-04-22 03:02 | 33.56280 | -86.75221 | 636 ft | 0 kts | 148° |